Latest Conditions
At L.F.Wade Int. Airport
Recorded at 10:55 pm
Few Clouds
Temp.: 
23°C/74°F
Humidity: 
66%
Wind: 
E 17KT
or 20mph
UV Index: 
0
Island Observations
 
Observations
Monday, October 23, 2017

Observations are in local time and taken at least once an hour, or upon the start and end of specified events such as showers and thunderstorms.

Time Sky / Weather Wind Speed/Gusts Temp. R.H. Pressure
     knots (mph)  °C (°F)  %  mb / "Hg
 22:55 Few Clouds  E 17/0 (20/0) 23(74) 66 1023 / 30.22
 21:55 Few Clouds  E 15/0 (17/0) 23(74) 66 1024 / 30.23
 20:55 Mostly Cloudy  E 16/0 (18/0) 24(75) 68 1024 / 30.23
 20:37 Mostly Cloudy  E 18/0 (21/0) 24(74) 66 1024 / 30.23
 20:16 Mostly Cloudy  E 17/0 (20/0) 24(74) 68 1023 / 30.22
 19:55 Partly Cloudy  E 18/0 (21/0) 24(74) 67 1023 / 30.22
 18:55 Partly Cloudy  E 18/0 (21/0) 24(75) 69 1023 / 30.22
 17:55 Few Clouds  E 16/0 (18/0) 24(76) 66 1023 / 30.22
 16:55 Few Clouds  E 19/0 (22/0) 25(77) 63 1024 / 30.23
 15:55 Few Clouds  E 19/0 (22/0) 25(77) 64 1024 / 30.23
 14:55 Mostly Cloudy  E 20/0 (23/0) 26(78) 64 1024 / 30.24
 13:55 Mostly Cloudy Showers E 18/0 (21/0) 26(78) 65 1024 / 30.25
 12:55 Mostly Cloudy  E 16/0 (18/0) 26(78) 65 1025 / 30.28
 11:55 Few Clouds  ENE 16/0 (18/0) 25(78) 67 1026 / 30.29
 10:55 Few Clouds  E 16/0 (18/0) 25(77) 66 1026 / 30.29
 09:55 Few Clouds  E 15/0 (17/0) 25(77) 64 1026 / 30.29
 08:55 Few Clouds  E 15/0 (17/0) 24(75) 68 1025 / 30.28
 07:55 Few Clouds  E 15/0 (17/0) 23(74) 70 1025 / 30.26
 06:55 Partly Cloudy  E 15/0 (17/0) 23(74) 71 1025 / 30.26
 05:55 Mostly Cloudy Showers E 16/0 (18/0) 24(74) 71 1025 / 30.26
 04:55 Mostly Cloudy Showers E 13/0 (15/0) 23(73) 84 1024 / 30.25
 04:44 Mostly Cloudy Showers ESE 13/0 (15/0) 23(73) 84 1025 / 30.26
 04:40 Mostly Cloudy Showers E 15/0 (17/0) 23(73) 83 1025 / 30.26
 03:55 Mostly Cloudy Showers E 16/0 (18/0) 23(74) 81 1025 / 30.26
 02:55 Mostly Cloudy Showers ESE 9/0 (10/0) 23(74) 80 1025 / 30.27
 01:55 Mostly Cloudy Showers NE 11/0 (13/0) 22(72) 86 1025 / 30.28
 01:10 Mostly Cloudy Showers NE 10/0 (12/0) 23(73) 84 1026 / 30.30
 00:55 Mostly Cloudy Showers ENE 13/0 (15/0) 23(74) 79 1026 / 30.30
 23:55 Partly Cloudy  ENE 9/0 (10/0) 24(74) 74 1026 / 30.30
 22:55 Mostly Cloudy  ENE 9/0 (10/0) 23(74) 72 1026 / 30.30
 21:55 Mostly Cloudy  ENE 10/0 (12/0) 24(74) 73 1026 / 30.30
 20:55 Partly Cloudy  ENE 11/0 (13/0) 24(74) 71 1026 / 30.29
 19:55 Few Clouds  E 12/0 (14/0) 24(74) 70 1025 / 30.27
 18:55 Few Clouds  ENE 12/0 (14/0) 24(74) 70 1025 / 30.27
 17:55 Few Clouds  ENE 10/0 (12/0) 24(75) 72 1025 / 30.26
 16:55 Few Clouds  ENE 11/0 (13/0) 25(77) 69 1025 / 30.27
 15:55 Few Clouds  ENE 10/0 (12/0) 26(78) 63 1025 / 30.28
 14:55 Partly Cloudy  NE 8/0 (9/0) 26(78) 63 1026 / 30.29
 13:55 Few Clouds  ENE 8/0 (9/0) 26(78) 66 1026 / 30.30
 12:55 Few Clouds  ENE 8/0 (9/0) 26(78) 66 1026 / 30.31
 11:55 Mostly Cloudy  E 9/0 (10/0) 25(77) 68 1027 / 30.33
 10:55 Mostly Cloudy  E 7/0 (8/0) 25(77) 67 1027 / 30.33
 09:55 Mostly Cloudy  NE 3/0 (3/0) 25(76) 71 1027 / 30.32
 08:55 Partly Cloudy  Calm 23(73) 90 1026 / 30.30
 07:55 Mostly Cloudy  Calm 20(68) 93 1025 / 30.28
 06:55 Mostly Cloudy  Calm 20(68) 92 1025 / 30.28
 05:55 Few Clouds  Calm 20(69) 92 1025 / 30.26
 04:55 Few Clouds  Calm 20(69) 90 1024 / 30.25
 03:55 Partly Cloudy  Calm 21(70) 86 1025 / 30.26
 02:55 Partly Cloudy  Calm 21(71) 82 1025 / 30.27
 01:55 Partly Cloudy  Calm 22(72) 77 1025 / 30.28
 00:55 Mostly Cloudy Showers Calm 22(72) 81 1026 / 30.29
 23:55 Mostly Cloudy Showers Calm 23(73) 75 1026 / 30.29
 22:55 Mostly Cloudy Showers SE 3/0 (3/0) 23(74) 73 1026 / 30.29
 21:55 Mostly Cloudy Showers E 5/0 (6/0) 23(73) 70 1025 / 30.28
 20:55 Mostly Cloudy Showers E 3/0 (3/0) 24(74) 66 1025 / 30.28
 19:58 Mostly Cloudy Showers NNE 5/0 (6/0) 24(75) 67 1025 / 30.27
 19:55 Mostly Cloudy Showers ENE 2/0 (2/0) 24(75) 62 1025 / 30.26
 18:55 Partly Cloudy  N 4/0 (5/0) 24(76) 59 1024 / 30.24
 17:55 Few Clouds  N 6/0 (7/0) 25(77) 53 1024 / 30.23
 16:55 Few Clouds  N 5/0 (6/0) 26(78) 51 1024 / 30.23
 15:55 Few Clouds  N 5/0 (6/0) 26(79) 51 1023 / 30.22
 14:55 Few Clouds  NNE 6/0 (7/0) 26(79) 52 1023 / 30.22
 13:55 Few Clouds  NNE 7/0 (8/0) 26(79) 55 1023 / 30.22
 12:55 Few Clouds  NE 8/0 (9/0) 26(79) 57 1024 / 30.24
 11:55 Few Clouds  NNE 8/0 (9/0) 26(79) 53 1024 / 30.24
 10:55 Partly Cloudy  NE 7/0 (8/0) 26(78) 56 1024 / 30.24
 09:55 Few Clouds  NNE 7/0 (8/0) 25(78) 54 1023 / 30.22
 08:55 Few Clouds  NNE 5/0 (6/0) 25(76) 53 1023 / 30.20
 07:55 Few Clouds  N 7/0 (8/0) 24(75) 58 1022 / 30.18
 06:55 Partly Cloudy  NNE 8/0 (9/0) 23(74) 64 1022 / 30.17
 05:55 Partly Cloudy  N 9/0 (10/0) 24(75) 60 1021 / 30.15
 04:55 Partly Cloudy  N 8/0 (9/0) 24(75) 64 1021 / 30.15
 03:55 Partly Cloudy Showers N 8/0 (9/0) 24(75) 67 1020 / 30.13
 02:55 Partly Cloudy  N 5/0 (6/0) 23(74) 70 1021 / 30.14
 01:55 Partly Cloudy  N 3/0 (3/0) 23(74) 72 1021 / 30.15
 00:55 Few Clouds  N 5/0 (6/0) 24(74) 68 1020 / 30.13
 23:55 Few Clouds  N 5/0 (6/0) 24(74) 72 1020 / 30.12
 22:55 Few Clouds  NNE 4/0 (5/0) 24(74) 71 1020 / 30.12
 21:55 Few Clouds  NNE 8/0 (9/0) 24(75) 70 1019 / 30.10
 20:55 Partly Cloudy  NNE 8/0 (9/0) 24(76) 69 1019 / 30.09
 19:55 Partly Cloudy  N 8/0 (9/0) 24(76) 69 1019 / 30.08
 18:55 Mostly Cloudy  N 9/0 (10/0) 25(76) 68 1018 / 30.07
 17:55 Partly Cloudy  N 7/0 (8/0) 25(77) 67 1018 / 30.05
 16:55 Partly Cloudy  N 10/0 (12/0) 26(78) 65 1017 / 30.03
 15:55 Partly Cloudy  NNE 11/0 (13/0) 26(78) 69 1017 / 30.02
 14:55 Partly Cloudy  NNE 13/0 (15/0) 25(78) 74 1016 / 30.01
 14:13 Mostly Cloudy Showers NNE 13/23 (15/26) 23(74) 81 1017 / 30.02
 14:00 Mostly Cloudy Showers NNW 12/22 (14/25) 24(74) 80 1017 / 30.02
 13:55 Mostly Cloudy Showers NE 10/0 (12/0) 25(77) 75 1017 / 30.02
 13:46 Mostly Cloudy Showers NNE 10/0 (12/0) 25(77) 78 1017 / 30.02
 13:11 Mostly Cloudy Showers NNW 8/0 (9/0) 22(72) 87 1017 / 30.03
 12:55 Overcast Showers NW 7/0 (8/0) 22(72) 87 1017 / 30.04
 12:25 Mostly Cloudy Showers N 10/0 (12/0) 22(71) 86 1017 / 30.04
 12:20 Overcast Showers N 14/0 (16/0) 22(71) 86 1017 / 30.04
 12:09 Overcast Showers N 18/28 (21/32) 22(72) 87 1017 / 30.04
 12:01 Mostly Cloudy Showers N 14/0 (16/0) 24(75) 77 1017 / 30.03
 11:55 Mostly Cloudy Showers NNE 13/0 (15/0) 26(78) 72 1017 / 30.03
 10:55 Mostly Cloudy  N 13/0 (15/0) 25(77) 73 1017 / 30.02
 09:55 Mostly Cloudy  N 14/0 (16/0) 25(77) 75 1016 / 30.00
Observations from our AWOS sites are available here (password and username are both 'guest').